Time;durP1;ratioP1;P1;durP2;ratioP2;P2;SDS_P1;SDS_P2;PMS_P1;PMS_P2;Temp;Humidity;BMP_temperature;BMP_pressure;BME280_temperature;BME280_humidity;BME280_pressure;Samples;Min_cycle;Max_cycle;Signal;HPM_P1;HPM_P2
2022/01/05 00:00:09;;;;;;;3.30;1.83;;;;;;;;;;5051847;28;20052;-73
2022/01/05 00:02:35;;;;;;;1.83;1.07;;;;;;;;;;5051426;28;20056;-73
2022/01/05 00:05:02;;;;;;;2.37;1.60;;;;;;;;;;5051242;28;20657;-73
2022/01/05 00:07:28;;;;;;;2.63;1.30;;;;;;;;;;5050985;28;20052;-71
2022/01/05 00:09:54;;;;;;;2.30;1.40;;;;;;;;;;5051327;28;20460;-73
2022/01/05 00:12:19;;;;;;;1.70;1.20;;;;;;;;;;5049425;28;20307;-76
2022/01/05 00:14:45;;;;;;;8.07;1.20;;;;;;;;;;5049691;28;20025;-74
2022/01/05 00:17:10;;;;;;;2.53;1.50;;;;;;;;;;5049894;28;20021;-74
2022/01/05 00:19:36;;;;;;;4.73;1.30;;;;;;;;;;5051172;28;20024;-72
2022/01/05 00:22:02;;;;;;;3.80;1.60;;;;;;;;;;5051245;28;20021;-74
2022/01/05 00:24:28;;;;;;;2.80;1.63;;;;;;;;;;5046041;28;20036;-73
2022/01/05 00:26:54;;;;;;;3.90;1.90;;;;;;;;;;5050672;28;20029;-72
2022/01/05 00:29:20;;;;;;;2.20;1.47;;;;;;;;;;5050774;28;20032;-73
2022/01/05 00:31:45;;;;;;;5.17;1.73;;;;;;;;;;5049298;28;20052;-73
2022/01/05 00:34:11;;;;;;;4.00;1.87;;;;;;;;;;5050779;28;20043;-73
2022/01/05 00:36:36;;;;;;;2.90;1.90;;;;;;;;;;5050015;28;20123;-73
2022/01/05 00:39:03;;;;;;;2.37;1.43;;;;;;;;;;5053251;28;20043;-73
2022/01/05 00:41:28;;;;;;;3.07;1.67;;;;;;;;;;5056465;28;20103;-73
2022/01/05 00:43:54;;;;;;;3.63;1.70;;;;;;;;;;5052539;28;20508;-73
2022/01/05 00:46:19;;;;;;;5.80;1.67;;;;;;;;;;5053088;28;20070;-73
2022/01/05 00:48:45;;;;;;;2.17;1.40;;;;;;;;;;5051722;28;20147;-72
2022/01/05 00:51:11;;;;;;;2.87;1.63;;;;;;;;;;5051123;28;20481;-72
2022/01/05 00:53:38;;;;;;;3.57;2.17;;;;;;;;;;5049010;28;20120;-74
2022/01/05 00:56:04;;;;;;;3.43;1.60;;;;;;;;;;5048735;28;20556;-73
2022/01/05 00:58:30;;;;;;;4.70;1.73;;;;;;;;;;5047754;28;20021;-72
2022/01/05 01:00:56;;;;;;;2.37;1.60;;;;;;;;;;5049068;28;20060;-72
2022/01/05 01:03:22;;;;;;;1.50;1.40;;;;;;;;;;5049999;28;20090;-75
2022/01/05 01:05:48;;;;;;;2.90;1.37;;;;;;;;;;5050455;28;20032;-73
2022/01/05 01:08:13;;;;;;;1.30;1.20;;;;;;;;;;5049003;28;20028;-73
2022/01/05 01:10:39;;;;;;;1.93;1.43;;;;;;;;;;5048946;28;20106;-72
2022/01/05 01:13:05;;;;;;;3.37;1.80;;;;;;;;;;5049995;28;20028;-73
2022/01/05 01:15:30;;;;;;;2.97;1.37;;;;;;;;;;5049605;28;20033;-73
2022/01/05 01:17:56;;;;;;;2.53;1.53;;;;;;;;;;5049764;28;20096;-73
2022/01/05 01:20:21;;;;;;;2.33;1.27;;;;;;;;;;5049931;28;20525;-73
2022/01/05 01:22:48;;;;;;;3.73;1.93;;;;;;;;;;5048406;28;20029;-71
2022/01/05 01:25:14;;;;;;;2.70;1.53;;;;;;;;;;5050056;28;20083;-73
2022/01/05 01:27:43;;;;;;;6.30;1.40;;;;;;;;;;5049274;28;20021;-74
2022/01/05 01:30:10;;;;;;;4.23;1.80;;;;;;;;;;5048620;28;20052;-74
2022/01/05 01:32:37;;;;;;;2.57;1.73;;;;;;;;;;5049663;28;20055;-74
2022/01/05 01:35:04;;;;;;;2.60;1.63;;;;;;;;;;5049632;28;20094;-73
2022/01/05 01:37:30;;;;;;;3.63;2.00;;;;;;;;;;5049164;28;20517;-73
2022/01/05 01:39:55;;;;;;;5.33;1.80;;;;;;;;;;5050150;28;20067;-73
2022/01/05 01:42:21;;;;;;;2.07;1.67;;;;;;;;;;5048092;28;20048;-73
2022/01/05 01:44:46;;;;;;;3.10;1.97;;;;;;;;;;5049367;28;20417;-73
2022/01/05 01:47:12;;;;;;;2.40;1.67;;;;;;;;;;5048196;28;20099;-73
2022/01/05 01:49:37;;;;;;;4.00;1.80;;;;;;;;;;5048090;28;20033;-73
2022/01/05 01:52:03;;;;;;;3.77;2.27;;;;;;;;;;5048469;28;20082;-73
2022/01/05 01:54:29;;;;;;;4.40;2.37;;;;;;;;;;5047940;28;20028;-74
2022/01/05 01:56:55;;;;;;;4.20;2.30;;;;;;;;;;5049057;28;20025;-74
2022/01/05 01:59:21;;;;;;;3.33;1.97;;;;;;;;;;5048021;28;20394;-73
2022/01/05 02:01:47;;;;;;;5.43;2.23;;;;;;;;;;5048011;28;20063;-73
2022/01/05 02:04:13;;;;;;;3.73;2.53;;;;;;;;;;5047877;28;20063;-73
2022/01/05 02:06:38;;;;;;;3.70;2.10;;;;;;;;;;5044308;28;20112;-74
2022/01/05 02:09:05;;;;;;;3.33;2.13;;;;;;;;;;5047881;28;20028;-73
2022/01/05 02:11:32;;;;;;;3.13;2.27;;;;;;;;;;5041257;28;20086;-73
2022/01/05 02:13:58;;;;;;;5.40;2.20;;;;;;;;;;5043541;28;20369;-73
2022/01/05 02:16:30;;;;;;;4.30;2.33;;;;;;;;;;5046230;28;20066;-72
2022/01/05 02:19:00;;;;;;;3.70;2.53;;;;;;;;;;5047504;28;20389;-73
2022/01/05 02:21:31;;;;;;;6.30;2.33;;;;;;;;;;5049200;28;20017;-74
2022/01/05 02:23:57;;;;;;;7.97;2.13;;;;;;;;;;5047829;28;20349;-72
2022/01/05 02:26:24;;;;;;;4.30;1.87;;;;;;;;;;5047678;28;20029;-72
2022/01/05 02:28:49;;;;;;;5.90;2.00;;;;;;;;;;5048772;28;20079;-74
2022/01/05 02:31:15;;;;;;;5.20;2.40;;;;;;;;;;5048883;28;20090;-73
2022/01/05 02:33:41;;;;;;;4.60;2.60;;;;;;;;;;5048731;28;20053;-73
2022/01/05 02:36:08;;;;;;;4.60;1.97;;;;;;;;;;5048667;28;20420;-73
2022/01/05 02:38:33;;;;;;;3.30;2.20;;;;;;;;;;5047234;28;20396;-72
2022/01/05 02:41:06;;;;;;;3.00;2.17;;;;;;;;;;5049653;28;20021;-74
2022/01/05 02:43:32;;;;;;;2.93;1.97;;;;;;;;;;5047590;28;20380;-72
2022/01/05 02:45:58;;;;;;;3.70;1.90;;;;;;;;;;5048802;28;20111;-72
2022/01/05 02:48:23;;;;;;;2.87;1.83;;;;;;;;;;5047481;28;20120;-73
2022/01/05 02:50:49;;;;;;;3.00;1.90;;;;;;;;;;5048907;28;20370;-72
2022/01/05 02:53:14;;;;;;;2.80;1.60;;;;;;;;;;5048822;28;20025;-73
2022/01/05 02:55:40;;;;;;;2.97;1.40;;;;;;;;;;5048505;28;20124;-73
2022/01/05 02:58:05;;;;;;;2.83;2.00;;;;;;;;;;5046995;28;20033;-73
2022/01/05 03:00:31;;;;;;;2.77;1.30;;;;;;;;;;5047287;28;20021;-73
2022/01/05 03:02:57;;;;;;;1.37;1.27;;;;;;;;;;5047458;28;20035;-73
2022/01/05 03:05:22;;;;;;;2.30;1.80;;;;;;;;;;5047364;28;20112;-72
2022/01/05 03:07:48;;;;;;;1.10;1.10;;;;;;;;;;5046803;28;20040;-72
2022/01/05 03:10:16;;;;;;;1.77;1.40;;;;;;;;;;5047525;28;20087;-73
2022/01/05 03:12:43;;;;;;;1.07;1.00;;;;;;;;;;5048358;28;20021;-74
2022/01/05 03:15:09;;;;;;;1.30;1.20;;;;;;;;;;5048446;28;20017;-73
2022/01/05 03:17:35;;;;;;;3.83;1.40;;;;;;;;;;5044520;28;20029;-72
2022/01/05 03:20:01;;;;;;;1.60;1.27;;;;;;;;;;5048471;28;20029;-73
2022/01/05 03:22:26;;;;;;;3.33;1.53;;;;;;;;;;5050381;28;20074;-73
2022/01/05 03:24:53;;;;;;;4.43;1.20;;;;;;;;;;5050728;28;20447;-73
2022/01/05 03:27:19;;;;;;;2.63;1.17;;;;;;;;;;5051785;28;20028;-73
2022/01/05 03:29:44;;;;;;;1.97;1.20;;;;;;;;;;5051662;28;20021;-73
2022/01/05 03:32:10;;;;;;;1.27;1.10;;;;;;;;;;5052174;28;20033;-72
2022/01/05 03:34:37;;;;;;;2.13;1.57;;;;;;;;;;5050679;28;20389;-73
2022/01/05 03:37:03;;;;;;;2.37;1.33;;;;;;;;;;5050569;28;20028;-72
2022/01/05 03:39:29;;;;;;;3.53;1.50;;;;;;;;;;5050825;28;20037;-73
2022/01/05 03:41:55;;;;;;;3.40;1.67;;;;;;;;;;5051111;28;20041;-74
2022/01/05 03:44:22;;;;;;;1.50;1.40;;;;;;;;;;5050285;28;20115;-74
2022/01/05 03:46:47;;;;;;;2.17;1.70;;;;;;;;;;5051315;28;20032;-73
2022/01/05 03:49:13;;;;;;;1.93;1.30;;;;;;;;;;5051726;28;20029;-73
2022/01/05 03:51:38;;;;;;;2.83;1.27;;;;;;;;;;5051502;28;20039;-74
2022/01/05 03:54:04;;;;;;;2.03;1.23;;;;;;;;;;5051953;28;20043;-72
2022/01/05 03:56:30;;;;;;;2.50;1.50;;;;;;;;;;5050128;28;20108;-72
2022/01/05 03:58:55;;;;;;;1.43;1.17;;;;;;;;;;5050338;28;20420;-72
2022/01/05 04:01:20;;;;;;;1.70;1.40;;;;;;;;;;5051225;28;20446;-72
2022/01/05 04:03:46;;;;;;;2.40;1.23;;;;;;;;;;5049553;28;20385;-74
2022/01/05 04:06:12;;;;;;;1.20;1.10;;;;;;;;;;5050986;28;20037;-73
2022/01/05 04:08:37;;;;;;;2.03;1.30;;;;;;;;;;5049709;28;20385;-73
2022/01/05 04:11:03;;;;;;;3.53;1.50;;;;;;;;;;5051444;28;20457;-73
2022/01/05 04:13:28;;;;;;;0.90;0.90;;;;;;;;;;5051099;28;20029;-73
2022/01/05 04:15:54;;;;;;;1.57;1.30;;;;;;;;;;5050785;28;20512;-73
2022/01/05 04:18:19;;;;;;;1.90;1.10;;;;;;;;;;5049946;28;20028;-73
2022/01/05 04:20:45;;;;;;;1.30;1.10;;;;;;;;;;5051024;28;20032;-73
2022/01/05 04:23:10;;;;;;;1.20;0.87;;;;;;;;;;5049619;28;20025;-73
2022/01/05 04:25:36;;;;;;;0.90;0.90;;;;;;;;;;5049511;28;20082;-72
2022/01/05 04:28:03;;;;;;;5.20;0.70;;;;;;;;;;5049282;28;20405;-73
2022/01/05 04:30:29;;;;;;;1.00;0.90;;;;;;;;;;5051320;28;20104;-73
2022/01/05 04:32:55;;;;;;;0.80;0.73;;;;;;;;;;5032511;28;20036;-73
2022/01/05 04:35:21;;;;;;;2.63;0.93;;;;;;;;;;5049191;28;20045;-74
2022/01/05 04:37:46;;;;;;;0.60;0.60;;;;;;;;;;5051873;28;20041;-71
2022/01/05 04:40:12;;;;;;;0.67;0.67;;;;;;;;;;5053103;28;20116;-72
2022/01/05 04:42:38;;;;;;;1.97;0.90;;;;;;;;;;5051895;28;20035;-71
2022/01/05 04:45:05;;;;;;;1.83;0.80;;;;;;;;;;5049596;28;20135;-73
2022/01/05 04:47:30;;;;;;;0.93;0.70;;;;;;;;;;5049215;28;20114;-73
2022/01/05 04:49:56;;;;;;;0.80;0.73;;;;;;;;;;5050309;28;20068;-73
2022/01/05 04:52:21;;;;;;;1.07;0.80;;;;;;;;;;5046113;28;20428;-72
2022/01/05 04:54:47;;;;;;;1.50;0.90;;;;;;;;;;5049632;28;20059;-73
2022/01/05 04:57:16;;;;;;;2.60;0.90;;;;;;;;;;5049044;28;20128;-72
2022/01/05 04:59:44;;;;;;;1.90;0.80;;;;;;;;;;5048881;28;20035;-72
2022/01/05 05:02:12;;;;;;;3.70;1.03;;;;;;;;;;5049016;28;20036;-73
2022/01/05 05:04:38;;;;;;;1.47;0.80;;;;;;;;;;5049990;28;20021;-73
2022/01/05 05:07:04;;;;;;;1.60;1.00;;;;;;;;;;5048973;28;20028;-72
2022/01/05 05:09:30;;;;;;;3.83;0.80;;;;;;;;;;5050227;28;20025;-72
2022/01/05 05:11:55;;;;;;;1.10;1.00;;;;;;;;;;5050000;28;20028;-73
2022/01/05 05:14:21;;;;;;;1.03;0.80;;;;;;;;;;5048544;28;20029;-73
2022/01/05 05:16:46;;;;;;;2.73;1.30;;;;;;;;;;5049645;28;20033;-74
2022/01/05 05:19:12;;;;;;;1.80;0.70;;;;;;;;;;5050302;28;20020;-74
2022/01/05 05:21:37;;;;;;;0.60;0.50;;;;;;;;;;5050029;28;20059;-75
2022/01/05 05:24:03;;;;;;;0.87;0.53;;;;;;;;;;5048810;28;20060;-72
2022/01/05 05:26:28;;;;;;;0.50;0.50;;;;;;;;;;5050023;28;20029;-72
2022/01/05 05:28:54;;;;;;;0.93;0.80;;;;;;;;;;5048296;28;20511;-73
2022/01/05 05:31:20;;;;;;;1.07;0.50;;;;;;;;;;5048352;28;20029;-73
2022/01/05 05:33:45;;;;;;;0.47;0.40;;;;;;;;;;5049929;28;20040;-74
2022/01/05 05:36:11;;;;;;;0.50;0.37;;;;;;;;;;5050382;28;20035;-73
2022/01/05 05:38:36;;;;;;;0.17;0.17;;;;;;;;;;5048753;28;20048;-74
2022/01/05 05:41:02;;;;;;;0.33;0.30;;;;;;;;;;5050346;28;20088;-73
2022/01/05 05:43:27;;;;;;;0.23;0.23;;;;;;;;;;5048466;28;20396;-73
2022/01/05 05:45:53;;;;;;;0.20;0.20;;;;;;;;;;5049035;28;20055;-73
2022/01/05 05:48:18;;;;;;;3.30;0.33;;;;;;;;;;5050050;28;20032;-73
2022/01/05 05:50:44;;;;;;;0.20;0.20;;;;;;;;;;5049441;28;20044;-73
2022/01/05 05:53:11;;;;;;;0.90;0.30;;;;;;;;;;5049860;28;20039;-74
2022/01/05 05:55:38;;;;;;;6.90;0.93;;;;;;;;;;5049527;28;20112;-75
2022/01/05 05:58:03;;;;;;;1.60;0.40;;;;;;;;;;5047962;28;20025;-73
2022/01/05 06:00:31;;;;;;;0.33;0.33;;;;;;;;;;5049204;28;20033;-72
2022/01/05 06:02:59;;;;;;;0.70;0.47;;;;;;;;;;5047654;28;20086;-73
2022/01/05 06:05:24;;;;;;;0.40;0.30;;;;;;;;;;5049525;28;20032;-74
2022/01/05 06:07:50;;;;;;;1.13;0.60;;;;;;;;;;5047417;28;20516;-71
2022/01/05 06:10:15;;;;;;;1.53;0.47;;;;;;;;;;5047995;28;20378;-73
2022/01/05 06:12:41;;;;;;;0.87;0.40;;;;;;;;;;5047678;28;20655;-74
2022/01/05 06:15:07;;;;;;;1.83;0.40;;;;;;;;;;5047659;28;20048;-74
2022/01/05 06:17:32;;;;;;;1.33;1.07;;;;;;;;;;5047923;28;20078;-76
2022/01/05 06:19:58;;;;;;;0.57;0.50;;;;;;;;;;5047781;28;20029;-73
2022/01/05 06:22:24;;;;;;;3.03;0.80;;;;;;;;;;5049751;28;20099;-72
2022/01/05 06:24:49;;;;;;;1.87;0.60;;;;;;;;;;5042366;28;20032;-73
2022/01/05 06:27:15;;;;;;;0.70;0.60;;;;;;;;;;5048524;28;20029;-72
2022/01/05 06:29:41;;;;;;;1.07;0.60;;;;;;;;;;5048189;28;20025;-73
2022/01/05 06:32:08;;;;;;;0.63;0.40;;;;;;;;;;5048405;28;20544;-74
2022/01/05 06:34:34;;;;;;;0.80;0.40;;;;;;;;;;5047171;28;20028;-72
2022/01/05 06:36:59;;;;;;;1.23;0.67;;;;;;;;;;5048258;28;20033;-73
2022/01/05 06:39:25;;;;;;;1.03;0.60;;;;;;;;;;5048354;28;20048;-71
2022/01/05 06:41:51;;;;;;;1.20;0.63;;;;;;;;;;5046463;28;20035;-72
2022/01/05 06:44:20;;;;;;;0.57;0.57;;;;;;;;;;5047039;28;20381;-72
2022/01/05 06:46:45;;;;;;;1.00;0.40;;;;;;;;;;5045642;28;20024;-74
2022/01/05 06:49:11;;;;;;;0.47;0.43;;;;;;;;;;5047265;28;20373;-73
2022/01/05 06:51:36;;;;;;;0.53;0.47;;;;;;;;;;5048124;28;20508;-74
2022/01/05 06:54:02;;;;;;;0.30;0.30;;;;;;;;;;5047526;28;20025;-73
2022/01/05 06:56:27;;;;;;;0.60;0.60;;;;;;;;;;5046381;28;20021;-73
2022/01/05 06:58:53;;;;;;;0.77;0.77;;;;;;;;;;5051640;28;20424;-73
2022/01/05 07:01:18;;;;;;;0.67;0.40;;;;;;;;;;5052117;28;20028;-72
2022/01/05 07:03:44;;;;;;;0.67;0.30;;;;;;;;;;5052341;28;20045;-72
2022/01/05 07:06:09;;;;;;;1.13;0.30;;;;;;;;;;5049942;28;20392;-74
2022/01/05 07:08:35;;;;;;;0.30;0.30;;;;;;;;;;5050548;28;20033;-72
2022/01/05 07:11:01;;;;;;;0.50;0.50;;;;;;;;;;5047558;28;20051;-73
2022/01/05 07:13:27;;;;;;;0.37;0.37;;;;;;;;;;5051730;28;20463;-75
2022/01/05 07:15:54;;;;;;;0.20;0.20;;;;;;;;;;5049039;28;20025;-75
2022/01/05 07:18:20;;;;;;;0.43;0.40;;;;;;;;;;5052647;28;20100;-74
2022/01/05 07:20:46;;;;;;;0.70;0.40;;;;;;;;;;5053465;28;20029;-74
2022/01/05 07:23:11;;;;;;;0.50;0.50;;;;;;;;;;5049164;28;20064;-76
2022/01/05 07:25:37;;;;;;;0.40;0.40;;;;;;;;;;5046694;28;20036;-73
2022/01/05 07:28:03;;;;;;;3.50;0.50;;;;;;;;;;5048857;28;20029;-72
2022/01/05 07:30:29;;;;;;;3.23;1.50;;;;;;;;;;5047946;28;20058;-72
2022/01/05 07:32:56;;;;;;;1.97;0.43;;;;;;;;;;5045803;28;20048;-72
2022/01/05 07:35:22;;;;;;;0.30;0.30;;;;;;;;;;5045377;28;20111;-73
2022/01/05 07:37:49;;;;;;;0.77;0.43;;;;;;;;;;5041061;28;20157;-74
2022/01/05 07:40:15;;;;;;;0.30;0.30;;;;;;;;;;5045436;28;20029;-73
2022/01/05 07:42:41;;;;;;;0.30;0.30;;;;;;;;;;5044213;28;20497;-74
2022/01/05 07:45:09;;;;;;;0.70;0.47;;;;;;;;;;5044053;28;20028;-74
2022/01/05 07:47:35;;;;;;;0.50;0.50;;;;;;;;;;5042603;28;20105;-74
2022/01/05 07:50:09;;;;;;;0.30;0.30;;;;;;;;;;5045198;28;20029;-73
2022/01/05 07:52:35;;;;;;;0.40;0.40;;;;;;;;;;5047850;28;20501;-72
2022/01/05 07:55:02;;;;;;;0.40;0.37;;;;;;;;;;5041167;28;20059;-75
2022/01/05 07:57:28;;;;;;;0.30;0.30;;;;;;;;;;5034086;28;20102;-73
2022/01/05 07:59:54;;;;;;;1.30;0.60;;;;;;;;;;5059952;28;20117;-72
2022/01/05 08:02:20;;;;;;;1.90;0.57;;;;;;;;;;5042956;28;20048;-74
2022/01/05 08:04:49;;;;;;;2.73;1.03;;;;;;;;;;5043828;28;20478;-73
2022/01/05 08:07:16;;;;;;;0.77;0.60;;;;;;;;;;5039469;28;20021;-74
2022/01/05 08:09:43;;;;;;;0.63;0.60;;;;;;;;;;5042191;28;20036;-72
2022/01/05 08:12:09;;;;;;;0.83;0.63;;;;;;;;;;5042444;28;20032;-73
2022/01/05 08:14:35;;;;;;;2.10;0.70;;;;;;;;;;5044515;28;20067;-73
2022/01/05 08:17:01;;;;;;;2.00;0.60;;;;;;;;;;5036730;28;20437;-73
2022/01/05 08:19:27;;;;;;;0.93;0.50;;;;;;;;;;5039910;28;20017;-74
2022/01/05 08:21:52;;;;;;;1.97;1.07;;;;;;;;;;5041847;28;20032;-74
2022/01/05 08:24:18;;;;;;;1.70;0.70;;;;;;;;;;5041332;28;20035;-74
2022/01/05 08:26:44;;;;;;;1.33;0.90;;;;;;;;;;5039370;28;20056;-73
2022/01/05 08:29:10;;;;;;;0.70;0.70;;;;;;;;;;5042554;28;20025;-76
2022/01/05 08:31:38;;;;;;;0.87;0.80;;;;;;;;;;5042102;28;20029;-73
2022/01/05 08:34:04;;;;;;;1.10;0.90;;;;;;;;;;5054435;28;20033;-72
2022/01/05 08:36:31;;;;;;;1.10;0.97;;;;;;;;;;5041434;28;20036;-73
2022/01/05 08:38:59;;;;;;;1.10;1.00;;;;;;;;;;5039441;28;20076;-73
2022/01/05 08:41:25;;;;;;;1.47;0.90;;;;;;;;;;5041669;28;20107;-73
2022/01/05 08:43:51;;;;;;;1.90;1.00;;;;;;;;;;5039541;28;20037;-73
2022/01/05 08:46:17;;;;;;;1.90;1.00;;;;;;;;;;5038088;28;20037;-75
2022/01/05 08:48:47;;;;;;;0.93;0.90;;;;;;;;;;5038880;28;20051;-75
2022/01/05 08:51:12;;;;;;;0.80;0.80;;;;;;;;;;5039867;28;20432;-72
2022/01/05 08:53:38;;;;;;;1.83;0.97;;;;;;;;;;5042283;28;20040;-73
2022/01/05 08:56:04;;;;;;;1.77;0.97;;;;;;;;;;5071161;28;20033;-74
2022/01/05 08:58:31;;;;;;;1.47;1.10;;;;;;;;;;5039176;28;20062;-74
2022/01/05 09:00:57;;;;;;;1.83;1.47;;;;;;;;;;5039678;28;20036;-72
2022/01/05 09:03:23;;;;;;;2.00;1.10;;;;;;;;;;5040594;28;20024;-74
2022/01/05 09:05:50;;;;;;;2.33;1.10;;;;;;;;;;5039188;28;20029;-76
2022/01/05 09:08:15;;;;;;;1.30;1.20;;;;;;;;;;5039569;28;20029;-74
2022/01/05 09:10:41;;;;;;;3.13;1.27;;;;;;;;;;5041407;28;20264;-75
2022/01/05 09:13:12;;;;;;;1.37;1.20;;;;;;;;;;5039649;28;21232;-72
2022/01/05 09:15:38;;;;;;;1.43;1.33;;;;;;;;;;5040261;28;20124;-73
2022/01/05 09:18:04;;;;;;;2.23;1.30;;;;;;;;;;5035021;28;20052;-73
2022/01/05 09:20:32;;;;;;;2.00;1.10;;;;;;;;;;5041986;28;20029;-72
2022/01/05 09:22:58;;;;;;;1.97;1.40;;;;;;;;;;5040702;28;20033;-72
2022/01/05 09:25:24;;;;;;;1.13;1.10;;;;;;;;;;5039107;28;20024;-74
2022/01/05 09:27:51;;;;;;;2.30;1.50;;;;;;;;;;5035003;28;20044;-75
2022/01/05 09:30:18;;;;;;;2.20;1.53;;;;;;;;;;5040208;28;20041;-74
2022/01/05 09:32:44;;;;;;;2.07;1.20;;;;;;;;;;5040037;28;20035;-76
2022/01/05 09:35:15;;;;;;;2.50;1.37;;;;;;;;;;5040966;28;20384;-75
2022/01/05 09:37:52;;;;;;;2.75;1.40;;;;;;;;;;5037136;28;20060;-74
2022/01/05 09:43:04;;;;;;;2.13;1.30;;;;;;;;;;5040521;28;20380;-74
2022/01/05 09:45:34;;;;;;;2.43;1.57;;;;;;;;;;5039342;28;20056;-72
2022/01/05 09:48:37;;;;;;;6.37;2.30;;;;;;;;;;5038128;28;20033;-72
2022/01/05 09:51:10;;;;;;;1.47;0.83;;;;;;;;;;5075276;28;20082;-74
2022/01/05 09:53:37;;;;;;;0.40;0.40;;;;;;;;;;5037819;28;20033;-73
2022/01/05 09:56:04;;;;;;;0.97;0.60;;;;;;;;;;5037062;28;20032;-74
2022/01/05 09:58:31;;;;;;;0.70;0.50;;;;;;;;;;5041107;28;20533;-74
2022/01/05 10:00:57;;;;;;;2.63;0.77;;;;;;;;;;5024635;28;20070;-74
2022/01/05 10:03:23;;;;;;;0.70;0.70;;;;;;;;;;5039404;28;20147;-74
2022/01/05 10:05:49;;;;;;;1.23;0.70;;;;;;;;;;5036908;28;20028;-75
2022/01/05 10:08:16;;;;;;;2.23;0.73;;;;;;;;;;5038463;28;20045;-75
2022/01/05 10:10:42;;;;;;;2.70;1.10;;;;;;;;;;5040785;28;20044;-76
2022/01/05 10:13:07;;;;;;;0.53;0.53;;;;;;;;;;5039713;28;20113;-73
2022/01/05 10:15:34;;;;;;;3.60;1.03;;;;;;;;;;5042548;28;20032;-72
2022/01/05 10:18:13;;;;;;;1.27;0.80;;;;;;;;;;5035785;28;20037;-73
2022/01/05 10:21:00;;;;;;;1.03;0.80;;;;;;;;;;5042711;28;20040;-74
2022/01/05 10:23:45;;;;;;;1.17;0.97;;;;;;;;;;5039212;28;20017;-72
2022/01/05 10:26:21;;;;;;;1.47;0.77;;;;;;;;;;5040439;28;20567;-72
2022/01/05 10:28:48;;;;;;;2.27;1.27;;;;;;;;;;5042950;28;20485;-73
2022/01/05 10:31:16;;;;;;;1.10;0.80;;;;;;;;;;5040145;28;20045;-75
2022/01/05 10:33:42;;;;;;;5.37;0.90;;;;;;;;;;5042737;28;20076;-74
2022/01/05 10:36:08;;;;;;;3.70;2.00;;;;;;;;;;5042365;28;20633;-75
2022/01/05 10:38:34;;;;;;;3.17;1.00;;;;;;;;;;5043758;28;20045;-73
2022/01/05 10:41:17;;;;;;;4.07;0.97;;;;;;;;;;5046852;28;20037;-73
2022/01/05 10:44:16;;;;;;;3.63;1.20;;;;;;;;;;5061377;28;20033;-76
2022/01/05 10:46:51;;;;;;;1.10;0.90;;;;;;;;;;5041589;28;20037;-73
2022/01/05 10:49:23;;;;;;;2.77;1.00;;;;;;;;;;5042769;28;20025;-75
2022/01/05 10:51:49;;;;;;;1.50;0.93;;;;;;;;;;5044773;28;20040;-75
2022/01/05 10:54:23;;;;;;;1.00;0.80;;;;;;;;;;5045542;28;20033;-72
2022/01/05 10:56:49;;;;;;;3.83;1.23;;;;;;;;;;5043693;28;20073;-74
2022/01/05 10:59:21;;;;;;;3.50;1.10;;;;;;;;;;5045151;28;20039;-73
2022/01/05 11:01:49;;;;;;;2.07;1.10;;;;;;;;;;5044652;28;20048;-73
2022/01/05 11:04:23;;;;;;;4.77;1.37;;;;;;;;;;5043371;28;20037;-75
2022/01/05 11:06:58;;;;;;;3.87;0.90;;;;;;;;;;5041472;28;20048;-74
2022/01/05 11:09:25;;;;;;;1.53;0.90;;;;;;;;;;5043682;28;20032;-75
2022/01/05 11:11:52;;;;;;;1.77;1.00;;;;;;;;;;5046359;28;20385;-74
2022/01/05 11:14:20;;;;;;;2.07;1.20;;;;;;;;;;5059429;28;20052;-71
2022/01/05 11:16:54;;;;;;;3.87;0.90;;;;;;;;;;5040880;28;20029;-74
2022/01/05 11:19:27;;;;;;;2.53;0.97;;;;;;;;;;5044523;28;20047;-75
2022/01/05 11:22:05;;;;;;;2.10;0.90;;;;;;;;;;5040318;28;20501;-75
2022/01/05 11:24:40;;;;;;;4.03;0.90;;;;;;;;;;5043041;28;20064;-72
2022/01/05 11:27:29;;;;;;;3.63;1.27;;;;;;;;;;5072304;28;20025;-74
2022/01/05 11:29:56;;;;;;;5.63;0.80;;;;;;;;;;5045666;28;20033;-75
2022/01/05 11:32:26;;;;;;;1.30;0.77;;;;;;;;;;5043773;28;20039;-74
2022/01/05 11:34:52;;;;;;;0.93;0.90;;;;;;;;;;5046481;28;20070;-75
2022/01/05 11:37:18;;;;;;;3.10;1.13;;;;;;;;;;5046782;28;20111;-74
2022/01/05 11:39:47;;;;;;;2.00;0.73;;;;;;;;;;5052676;28;20129;-74
2022/01/05 11:42:17;;;;;;;0.73;0.73;;;;;;;;;;5048813;28;20028;-73
2022/01/05 11:44:45;;;;;;;4.00;1.13;;;;;;;;;;5044941;28;20067;-76
2022/01/05 11:47:20;;;;;;;1.10;0.83;;;;;;;;;;5043794;28;20082;-73
2022/01/05 11:49:46;;;;;;;5.10;1.30;;;;;;;;;;5046459;28;20481;-73
2022/01/05 11:52:11;;;;;;;7.73;1.47;;;;;;;;;;5049830;28;20036;-72
2022/01/05 11:54:37;;;;;;;5.47;1.77;;;;;;;;;;5036474;28;20033;-73
2022/01/05 11:57:12;;;;;;;2.23;0.93;;;;;;;;;;5053547;28;20373;-74
2022/01/05 11:59:42;;;;;;;5.67;1.27;;;;;;;;;;5031893;28;20039;-74
2022/01/05 12:02:10;;;;;;;5.77;1.57;;;;;;;;;;5050918;28;20047;-73
2022/01/05 12:04:56;;;;;;;4.03;1.53;;;;;;;;;;5081079;28;20028;-73
2022/01/05 12:07:43;;;;;;;3.30;1.17;;;;;;;;;;5050190;28;20437;-75
2022/01/05 12:13:06;;;;;;;4.33;1.23;;;;;;;;;;5047739;28;20055;-74
2022/01/05 12:15:51;;;;;;;5.33;1.70;;;;;;;;;;5018130;28;20509;-75
2022/01/05 12:18:26;;;;;;;4.07;1.30;;;;;;;;;;5044394;28;20037;-73
2022/01/05 12:20:52;;;;;;;2.27;1.10;;;;;;;;;;5045151;28;20033;-74
2022/01/05 12:23:20;;;;;;;4.40;1.30;;;;;;;;;;5043907;28;20029;-75
2022/01/05 12:26:05;;;;;;;4.60;0.93;;;;;;;;;;5045730;28;20045;-76
2022/01/05 12:28:33;;;;;;;3.33;0.90;;;;;;;;;;5044570;28;20041;-74
2022/01/05 12:30:59;;;;;;;4.50;1.30;;;;;;;;;;5058608;28;20033;-73
2022/01/05 12:33:25;;;;;;;2.23;1.20;;;;;;;;;;5044963;28;20417;-71
2022/01/05 12:36:00;;;;;;;9.20;1.40;;;;;;;;;;5025556;28;20148;-75
2022/01/05 12:38:44;;;;;;;3.33;1.10;;;;;;;;;;5044422;28;20068;-76
2022/01/05 12:41:28;;;;;;;5.67;1.40;;;;;;;;;;5043296;28;20037;-76
2022/01/05 12:43:56;;;;;;;5.50;1.30;;;;;;;;;;5039220;28;20087;-75
2022/01/05 12:46:42;;;;;;;3.73;1.07;;;;;;;;;;5042879;28;20028;-76
2022/01/05 12:49:17;;;;;;;3.27;1.33;;;;;;;;;;5041881;28;20487;-73
2022/01/05 12:52:01;;;;;;;6.63;1.97;;;;;;;;;;5041434;28;20059;-75
2022/01/05 12:54:31;;;;;;;4.30;1.50;;;;;;;;;;5041727;28;20487;-74
2022/01/05 12:57:25;;;;;;;4.13;1.20;;;;;;;;;;5039224;28;20032;-74
2022/01/05 12:59:53;;;;;;;3.87;1.00;;;;;;;;;;5041019;28;20057;-75
2022/01/05 13:02:27;;;;;;;5.83;1.27;;;;;;;;;;5038683;28;20486;-73
2022/01/05 13:04:55;;;;;;;5.93;1.27;;;;;;;;;;5042484;28;20064;-73
2022/01/05 13:07:23;;;;;;;2.07;1.07;;;;;;;;;;5043360;28;20045;-73
2022/01/05 13:09:52;;;;;;;5.13;1.80;;;;;;;;;;5044737;28;20025;-73
2022/01/05 13:12:20;;;;;;;4.63;1.23;;;;;;;;;;5039966;28;20501;-74
2022/01/05 13:14:56;;;;;;;3.17;1.47;;;;;;;;;;5044157;28;20620;-76
2022/01/05 13:17:27;;;;;;;5.60;1.97;;;;;;;;;;5045593;28;20031;-73
2022/01/05 13:20:03;;;;;;;3.50;2.03;;;;;;;;;;5046296;28;20044;-72
2022/01/05 13:22:36;;;;;;;3.73;1.57;;;;;;;;;;5043913;28;20477;-73
2022/01/05 13:25:07;;;;;;;5.20;1.53;;;;;;;;;;5041252;28;20029;-73
2022/01/05 13:27:38;;;;;;;8.20;1.97;;;;;;;;;;5042809;28;20059;-74
2022/01/05 13:30:13;;;;;;;4.93;1.87;;;;;;;;;;5042983;28;20317;-73
2022/01/05 13:32:39;;;;;;;2.07;1.10;;;;;;;;;;5041848;28;20040;-74
2022/01/05 13:35:18;;;;;;;3.73;1.30;;;;;;;;;;5046233;28;20699;-72
2022/01/05 13:37:53;;;;;;;6.03;1.50;;;;;;;;;;5043851;28;20142;-73
2022/01/05 13:40:29;;;;;;;8.77;1.40;;;;;;;;;;5047691;28;20549;-73
2022/01/05 13:43:03;;;;;;;6.20;1.70;;;;;;;;;;5041005;28;20041;-74
2022/01/05 13:45:49;;;;;;;2.93;1.27;;;;;;;;;;5044405;28;20059;-74
2022/01/05 13:48:26;;;;;;;4.70;1.00;;;;;;;;;;5044496;28;20037;-72
2022/01/05 13:51:00;;;;;;;5.03;1.90;;;;;;;;;;5043783;28;20415;-72
2022/01/05 13:53:28;;;;;;;3.10;1.47;;;;;;;;;;5043029;28;20029;-72
2022/01/05 13:56:15;;;;;;;3.53;1.20;;;;;;;;;;5046985;28;20398;-73
2022/01/05 13:58:45;;;;;;;3.47;1.10;;;;;;;;;;5047163;28;20063;-72
2022/01/05 14:01:20;;;;;;;2.30;1.33;;;;;;;;;;5047956;28;20037;-72
2022/01/05 14:03:55;;;;;;;3.40;1.70;;;;;;;;;;5045722;28;20086;-74
2022/01/05 14:06:26;;;;;;;9.77;1.43;;;;;;;;;;5045640;28;20029;-72
2022/01/05 14:08:57;;;;;;;5.03;1.53;;;;;;;;;;5045473;28;20033;-73
2022/01/05 14:11:23;;;;;;;6.83;2.70;;;;;;;;;;5043567;28;20468;-72
2022/01/05 14:13:55;;;;;;;10.47;2.63;;;;;;;;;;5041403;28;20033;-72
2022/01/05 14:16:53;;;;;;;6.70;1.73;;;;;;;;;;5043146;28;20041;-73
2022/01/05 14:19:27;;;;;;;7.67;1.50;;;;;;;;;;5041761;28;20024;-74
2022/01/05 14:22:03;;;;;;;20.37;4.73;;;;;;;;;;5038617;28;20032;-73
2022/01/05 14:24:33;;;;;;;10.23;2.03;;;;;;;;;;5044595;28;20037;-73
2022/01/05 14:26:59;;;;;;;6.13;2.50;;;;;;;;;;5043072;28;20033;-73
2022/01/05 14:29:26;;;;;;;3.17;1.53;;;;;;;;;;5043310;28;20021;-73
2022/01/05 14:32:00;;;;;;;7.03;1.80;;;;;;;;;;5022610;28;20037;-74
2022/01/05 14:34:27;;;;;;;5.53;2.13;;;;;;;;;;5027663;28;20036;-75
2022/01/05 14:37:06;;;;;;;7.47;1.77;;;;;;;;;;5042086;28;20029;-72
2022/01/05 14:39:37;;;;;;;2.50;1.33;;;;;;;;;;5040354;28;20090;-72
2022/01/05 14:42:04;;;;;;;5.03;2.27;;;;;;;;;;5040122;28;20448;-72
2022/01/05 14:44:32;;;;;;;3.20;1.73;;;;;;;;;;5030614;28;20282;-74
2022/01/05 14:47:03;;;;;;;5.23;2.20;;;;;;;;;;5047747;28;20028;-72
2022/01/05 14:49:31;;;;;;;5.80;1.75;;;;;;;;;;5045761;28;20251;-75
2022/01/05 14:51:58;;;;;;;4.87;1.90;;;;;;;;;;5045468;28;20135;-75
2022/01/05 14:54:27;;;;;;;6.63;1.90;;;;;;;;;;5046174;28;20385;-73